createdAt,value
2023-02-09T00:00:13.294Z,69.50
2023-02-09T00:05:12.683Z,65.53
2023-02-09T00:10:11.823Z,73.70
2023-02-09T00:15:12.268Z,84.03
2023-02-09T00:20:12.133Z,97.87
2023-02-09T00:25:10.976Z,82.60
2023-02-09T00:30:12.708Z,72.53
2023-02-09T00:35:11.677Z,75.60
2023-02-09T00:40:11.519Z,90.50
2023-02-09T00:45:12.111Z,74.23
2023-02-09T00:50:11.109Z,69.20
2023-02-09T00:55:10.728Z,69.77
2023-02-09T01:00:15.488Z,73.23
2023-02-09T01:05:14.264Z,68.33
2023-02-09T01:10:13.041Z,65.40
2023-02-09T01:15:14.635Z,73.57
2023-02-09T01:20:16.474Z,67.57
2023-02-09T01:25:15.219Z,76.10
2023-02-09T01:30:16.301Z,74.97
2023-02-09T01:35:15.077Z,71.23
2023-02-09T01:40:14.242Z,67.40
2023-02-09T01:45:29.750Z,77.40
2023-02-09T01:50:32.174Z,78.10
2023-02-09T01:55:33.950Z,83.53
2023-02-09T02:00:34.147Z,79.03
2023-02-09T02:05:36.411Z,90.27
2023-02-09T02:10:35.718Z,86.57
2023-02-09T02:15:43.656Z,65.53
2023-02-09T02:21:21.938Z,64.83
2023-02-09T02:26:55.893Z,54.77
2023-02-09T02:32:15.698Z,61.80
2023-02-09T02:37:30.666Z,42.73
2023-02-09T02:42:52.193Z,47.10
2023-02-09T02:48:00.781Z,45.93
2023-02-09T02:53:03.174Z,43.60
2023-02-09T02:58:07.548Z,47.07
2023-02-09T03:03:13.089Z,51.23
2023-02-09T03:08:11.912Z,47.30
2023-02-09T03:13:30.548Z,47.17
2023-02-09T03:18:36.725Z,41.57
2023-02-09T03:23:46.857Z,46.17
2023-02-09T03:28:49.191Z,45.87
2023-02-09T03:33:50.527Z,44.33
2023-02-09T03:38:49.675Z,46.47
2023-02-09T03:44:10.900Z,45.13
2023-02-09T03:49:13.541Z,41.17
2023-02-09T03:54:12.316Z,50.57
2023-02-09T03:59:11.212Z,47.00
2023-02-09T04:04:11.517Z,50.07
2023-02-09T04:09:10.409Z,48.37
2023-02-09T04:14:09.976Z,54.13
2023-02-09T04:19:09.866Z,73.60
2023-02-09T04:24:11.033Z,60.97
2023-02-09T04:29:10.042Z,55.17
2023-02-09T04:34:08.913Z,52.27
2023-02-09T04:39:09.155Z,57.13
2023-02-09T04:44:07.998Z,68.53
2023-02-09T04:49:06.851Z,53.83
2023-02-09T04:54:05.743Z,52.90
2023-02-09T04:59:23.134Z,49.93
2023-02-09T05:04:22.015Z,44.03
2023-02-09T05:09:20.784Z,35.00
2023-02-09T05:14:21.051Z,33.50
2023-02-09T05:19:20.012Z,31.33
2023-02-09T05:24:18.797Z,33.97
2023-02-09T05:29:17.573Z,32.07
2023-02-09T05:34:17.817Z,38.40
2023-02-09T05:39:16.603Z,32.63
2023-02-09T05:44:15.358Z,38.20
2023-02-09T05:49:14.195Z,32.90
2023-02-09T05:54:14.467Z,32.30
2023-02-09T05:59:13.250Z,31.37
2023-02-09T06:04:12.365Z,39.90
2023-02-09T06:09:11.510Z,62.10
2023-02-09T06:14:12.835Z,68.63
2023-02-09T06:19:14.357Z,71.67
2023-02-09T06:24:13.870Z,65.07
2023-02-09T06:29:14.204Z,61.73
2023-02-09T06:34:13.006Z,77.60
2023-02-09T06:39:12.650Z,55.47
2023-02-09T06:44:12.088Z,84.17
2023-02-09T06:49:12.477Z,93.23
2023-02-09T06:54:11.686Z,90.47
2023-02-09T06:59:10.572Z,86.90
2023-02-09T07:04:09.382Z,48.97
2023-02-09T07:09:09.532Z,46.13
2023-02-09T07:14:08.375Z,34.33
2023-02-09T07:19:07.174Z,32.53
2023-02-09T07:24:06.737Z,31.27
2023-02-09T07:29:06.999Z,29.13
2023-02-09T07:34:05.865Z,29.23
2023-02-09T07:39:04.870Z,30.40
2023-02-09T07:44:03.852Z,31.03
2023-02-09T07:49:04.391Z,33.07
2023-02-09T07:54:04.132Z,36.10
2023-02-09T07:59:09.549Z,34.10
2023-02-09T08:04:09.785Z,36.67
2023-02-09T08:09:09.533Z,33.77
2023-02-09T08:14:12.304Z,33.33
2023-02-09T08:19:14.484Z,38.30
2023-02-09T08:24:14.506Z,38.90
2023-02-09T08:29:14.135Z,35.97
2023-02-09T08:34:14.826Z,34.10
2023-02-09T08:39:13.566Z,37.67
2023-02-09T08:44:12.443Z,35.43
2023-02-09T08:49:11.660Z,34.13
2023-02-09T08:54:11.880Z,36.80
2023-02-09T08:59:10.595Z,33.80
2023-02-09T09:04:10.096Z,28.53
2023-02-09T09:09:08.969Z,35.13
2023-02-09T09:14:09.319Z,30.20
2023-02-09T09:19:08.514Z,35.73
2023-02-09T09:24:07.528Z,35.37
2023-02-09T09:29:06.345Z,31.90
2023-02-09T09:34:06.946Z,33.33
2023-02-09T09:39:05.733Z,31.58
2023-02-09T09:44:09.996Z,27.20
2023-02-09T09:49:20.954Z,22.48
2023-02-09T09:54:22.411Z,24.88
2023-02-09T09:59:24.398Z,25.17
2023-02-09T10:04:24.584Z,23.42
2023-02-09T10:09:38.599Z,30.25
2023-02-09T10:14:37.411Z,29.48
2023-02-09T10:19:37.537Z,24.15
2023-02-09T10:24:39.886Z,22.00
2023-02-09T10:29:38.776Z,18.52
2023-02-09T10:34:46.707Z,19.88
2023-02-09T10:39:46.755Z,17.92
2023-02-09T10:44:49.369Z,23.42
2023-02-09T10:49:54.971Z,21.43
2023-02-09T10:54:56.682Z,21.75
2023-02-09T10:59:57.617Z,20.50
2023-02-09T11:04:57.886Z,18.55
2023-02-09T11:09:59.654Z,21.77
2023-02-09T11:14:58.385Z,18.95
2023-02-09T11:20:18.617Z,20.70
2023-02-09T11:25:23.421Z,20.38
2023-02-09T11:30:43.542Z,18.58
2023-02-09T11:35:53.694Z,16.75
2023-02-09T11:40:55.184Z,19.83
2023-02-09T11:45:58.319Z,20.70
2023-02-09T11:51:05.409Z,14.13
2023-02-09T11:56:06.677Z,15.82
2023-02-09T12:01:16.293Z,15.27
2023-02-09T12:06:23.005Z,14.82
2023-02-09T12:11:36.338Z,18.40
2023-02-09T12:16:38.548Z,13.27
2023-02-09T12:21:42.268Z,11.90
2023-02-09T12:26:44.789Z,13.60
2023-02-09T12:32:16.663Z,10.10
2023-02-09T12:37:35.882Z,16.38
2023-02-09T12:42:41.422Z,12.93
2023-02-09T12:47:45.820Z,13.85
2023-02-09T12:53:17.705Z,15.40
2023-02-09T12:58:37.451Z,12.63
2023-02-09T13:03:45.258Z,11.45
2023-02-09T13:08:50.162Z,15.55
2023-02-09T13:13:55.929Z,12.63
2023-02-09T13:19:05.442Z,13.73
2023-02-09T13:24:09.164Z,16.15
2023-02-09T13:29:20.493Z,15.15
2023-02-09T13:34:30.759Z,15.40
2023-02-09T13:39:35.987Z,12.52
2023-02-09T13:44:36.301Z,11.25
2023-02-09T13:49:35.147Z,15.85
2023-02-09T13:54:33.970Z,15.88
2023-02-09T13:59:32.797Z,14.50
2023-02-09T14:04:36.068Z,16.73
2023-02-09T14:15:07.709Z,14.10
2023-02-09T14:20:22.512Z,22.80
2023-02-09T14:25:24.958Z,15.27
2023-02-09T14:30:27.010Z,22.23
2023-02-09T14:35:29.636Z,18.57
2023-02-09T14:40:34.005Z,14.57
2023-02-09T14:45:38.933Z,16.27
2023-02-09T14:50:39.367Z,19.08
2023-02-09T14:55:40.574Z,18.20
2023-02-09T15:00:39.735Z,27.67
2023-02-09T15:05:40.220Z,17.02
2023-02-09T15:10:43.380Z,18.88
2023-02-09T15:15:43.173Z,21.92
2023-02-09T15:20:43.492Z,25.15
2023-02-09T15:25:43.357Z,21.15
2023-02-09T15:30:42.205Z,26.55
2023-02-09T15:35:41.603Z,23.05
2023-02-09T15:41:01.870Z,26.40
2023-02-09T15:46:18.228Z,32.83
2023-02-09T15:51:18.080Z,37.00
2023-02-09T15:56:18.977Z,34.35
2023-02-09T16:01:19.852Z,36.95
2023-02-09T16:06:25.141Z,40.53
2023-02-09T16:11:33.109Z,43.38
2023-02-09T16:16:32.272Z,43.00
2023-02-09T16:21:33.560Z,47.72
2023-02-09T16:26:35.538Z,48.38
2023-02-09T16:31:34.498Z,45.92
2023-02-09T16:36:33.953Z,55.58
2023-02-09T16:41:50.649Z,59.50
2023-02-09T16:46:51.660Z,66.53
2023-02-09T16:51:50.447Z,69.05
2023-02-09T16:56:54.600Z,79.03
2023-02-09T17:01:53.621Z,75.13
2023-02-09T17:06:53.373Z,86.77
2023-02-09T17:11:53.510Z,89.57
2023-02-09T17:16:52.987Z,102.00
2023-02-09T17:21:51.707Z,86.97
2023-02-09T17:26:50.503Z,89.50
2023-02-09T17:31:53.545Z,67.53
2023-02-09T17:36:52.678Z,62.60
2023-02-09T17:41:51.620Z,63.17
2023-02-09T17:46:52.227Z,63.63
2023-02-09T17:51:51.648Z,65.57
2023-02-09T17:56:50.427Z,64.33
2023-02-09T18:01:51.276Z,75.47
2023-02-09T18:06:50.359Z,272.03
2023-02-09T18:12:02.214Z,185.17
2023-02-09T18:17:03.943Z,212.10
2023-02-09T18:22:03.772Z,301.47
2023-02-09T18:27:02.824Z,280.60
2023-02-09T18:32:05.309Z,224.13
2023-02-09T18:37:04.314Z,225.87
2023-02-09T18:42:03.452Z,233.07
2023-02-09T18:47:02.527Z,239.17
2023-02-09T18:52:02.885Z,204.77
2023-02-09T18:57:01.985Z,195.43
2023-02-09T19:02:01.270Z,194.10
2023-02-09T19:07:00.546Z,250.27
2023-02-09T19:12:01.350Z,248.77
2023-02-09T19:17:00.145Z,251.33
2023-02-09T19:22:00.299Z,260.10
2023-02-09T19:27:00.449Z,192.93
2023-02-09T19:31:59.253Z,192.63
2023-02-09T19:36:58.144Z,171.27
2023-02-09T19:41:56.886Z,164.60
2023-02-09T19:46:57.045Z,141.90
2023-02-09T19:51:55.771Z,130.70
2023-02-09T19:56:54.518Z,125.40
2023-02-09T20:01:53.423Z,118.57
2023-02-09T20:06:53.656Z,134.87
2023-02-09T20:11:52.512Z,116.17
2023-02-09T20:16:53.423Z,101.43
2023-02-09T20:21:53.582Z,118.17
2023-02-09T20:26:52.355Z,127.70
2023-02-09T20:31:51.270Z,129.73
2023-02-09T20:36:50.727Z,114.37
2023-02-09T20:42:14.429Z,109.97
2023-02-09T20:47:13.278Z,120.78
2023-02-09T20:52:12.446Z,119.60
2023-02-09T20:57:12.905Z,117.80
2023-02-09T21:02:12.769Z,123.07
2023-02-09T21:07:11.602Z,155.40
2023-02-09T21:12:10.576Z,159.57
2023-02-09T21:17:10.816Z,184.77
2023-02-09T21:22:09.924Z,191.87
2023-02-09T21:27:09.246Z,175.23
2023-02-09T21:32:08.696Z,175.43
2023-02-09T21:37:13.051Z,196.73
2023-02-09T21:42:28.931Z,174.40
2023-02-09T21:47:28.321Z,170.63
2023-02-09T21:52:29.995Z,163.10
2023-02-09T21:57:29.691Z,142.40
2023-02-09T22:02:28.641Z,134.53
2023-02-09T22:07:29.286Z,156.67
2023-02-09T22:12:28.041Z,166.90
2023-02-09T22:17:27.151Z,155.23
2023-02-09T22:22:25.949Z,155.27
2023-02-09T22:27:26.297Z,162.43
2023-02-09T22:32:25.158Z,147.70
2023-02-09T22:37:24.571Z,107.10
2023-02-09T22:42:23.332Z,84.03
2023-02-09T22:47:23.515Z,74.70
2023-02-09T22:52:22.386Z,64.37
2023-02-09T22:57:21.245Z,69.00
2023-02-09T23:02:20.044Z,68.33
2023-02-09T23:07:20.196Z,67.90
2023-02-09T23:12:18.932Z,66.33
2023-02-09T23:17:17.798Z,82.13
2023-02-09T23:22:16.653Z,73.17
2023-02-09T23:27:16.880Z,74.80
2023-02-09T23:32:15.678Z,65.67
2023-02-09T23:37:23.607Z,65.73
2023-02-09T23:42:34.789Z,75.40
2023-02-09T23:47:33.609Z,72.10
2023-02-09T23:52:32.361Z,72.10
2023-02-09T23:57:31.573Z,69.23
